Star Helena — V7KJ9 — position and weather

sailwx.info

Track history (hours):
 
Tides and Currents Weather Stations Pressure Air Temp Water Temp Dewpoint Dewpoint Depression Visibility Wind Speed Wind Dir Waves Ship Positions

Star Helena

Last reported at 2015-May-17 12:31 UTC. Time now 2015-May-22 09:58 UTC.
Position N 01°55' E 102°21'.

Length 229 m; draft 14.4 m.

Type: Cargo ship. MMSI: 538002630.

Date/timePositionNaut miles runAvg speedWind from/ knotsBaromVisibWave heightAir tempDewpointWater temp
2015-May-17 12:31N 01°55' E 102°21'9 9.2
2015-May-17 11:32N 01°51' E 102°30'9 9.3
2015-May-17 10:33N 01°47' E 102°38'1010.1
2015-May-17 09:33N 01°43' E 102°47'7310.2
2015-May-17 02:28N 01°13' E 103°53'7 7.1
2015-May-17 01:33N 01°17' E 103°58'0 0.2
2015-May-17 00:25N 01°16' E 103°58'0 0.2
2015-May-16 23:27N 01°17' E 103°59'0 0.1
2015-May-16 22:27N 01°17' E 103°59'0 0.0
2015-May-16 21:21N 01°17' E 103°59'0 0.1
2015-May-16 20:27N 01°17' E 103°59'0 0.0
2015-May-16 18:30N 01°17' E 103°59'0 0.0
2015-May-16 17:20N 01°17' E 103°59'0 0.1
2015-May-16 16:26N 01°17' E 103°59'0 0.1
2015-May-16 15:17N 01°17' E 103°58'0 0.2
2015-May-16 14:32N 01°17' E 103°58'0 0.0
2015-May-16 13:32N 01°17' E 103°58'0 0.0
2015-May-16 12:33N 01°17' E 103°58'2 1.7
2015-May-16 11:33N 01°16' E 103°60'6 5.9
2015-May-16 10:33N 01°17' E 104°06'7 6.2
2015-May-16 09:21N 01°18' E 104°13'  
Track history (hours):
 
Tides and Currents Weather Stations Pressure Air Temp Water Temp Dewpoint Dewpoint Depression Visibility Wind Speed Wind Dir Waves Ship Positions

Star Helena

Last reported at 2015-May-17 12:31 UTC. Time now 2015-May-22 09:58 UTC.
Position N 01°55' E 102°21'.

Length 229 m; draft 14.4 m.

Type: Cargo ship. MMSI: 538002630.

Date/timePositionNaut miles runAvg speedWind from/ knotsBaromVisibWave heightAir tempDewpointWater temp
2015-May-17 12:31N 01°55' E 102°21'9 9.2
2015-May-17 11:32N 01°51' E 102°30'9 9.3
2015-May-17 10:33N 01°47' E 102°38'1010.1
2015-May-17 09:33N 01°43' E 102°47'7310.2
2015-May-17 02:28N 01°13' E 103°53'7 7.1
2015-May-17 01:33N 01°17' E 103°58'0 0.2
2015-May-17 00:25N 01°16' E 103°58'0 0.2
2015-May-16 23:27N 01°17' E 103°59'0 0.1
2015-May-16 22:27N 01°17' E 103°59'0 0.0
2015-May-16 21:21N 01°17' E 103°59'0 0.1
2015-May-16 20:27N 01°17' E 103°59'0 0.0
2015-May-16 18:30N 01°17' E 103°59'0 0.0
2015-May-16 17:20N 01°17' E 103°59'0 0.1
2015-May-16 16:26N 01°17' E 103°59'0 0.1
2015-May-16 15:17N 01°17' E 103°58'0 0.2
2015-May-16 14:32N 01°17' E 103°58'0 0.0
2015-May-16 13:32N 01°17' E 103°58'0 0.0
2015-May-16 12:33N 01°17' E 103°58'2 1.7
2015-May-16 11:33N 01°16' E 103°60'6 5.9
2015-May-16 10:33N 01°17' E 104°06'7 6.2
2015-May-16 09:21N 01°18' E 104°13'  

Dump ship's entire track history